Terminal Aerodrome Forecast
Issued by NWS

Home | Current Version | Previous Version | Text Only | Print | Product List | Glossary On
Versions: 1 2 3 4 5 6 7 8 9 10 11 12 13
000
FTUS46 KSEW 041144 AAA
TAFPAE
TAF AMD
KPAE 041144Z 0412/0512 01003KT P6SM SCT025 OVC100
      TEMPO 0412/0414 BKN025 OVC100
     FM041400 36003KT P6SM BKN025 OVC060
     FM041900 33007KT P6SM SCT025 BKN050
     FM050000 35006KT P6SM SCT040 BKN080 OVC200
     FM051000 01004KT P6SM BKN040 OVC070=

USA.gov is the U.S. government's official web portal to all federal, state and local government web resources and services.